メインページ
METAR-TAF:

METAR-TAF

空港 :

アカプルコ, メキシコ

アカプルコ国際空港

緯度: 16-46N, 経度: 099-45W, 海抜: 5m

現時点の気象観測

当レポートは1時間20分前の10:45(UTC)に作成
無風
気温 23°C
湿度 83%
気圧 1013 hPa
視程: 12.9km
晴天

METAR: MMAA 241045Z 00000KT 8SM SKC 23/20 A2991 RMK HZY

時間: 06:05 (12:05 UTC)

予報

当レポートは1時間31分前の10:34(UTC)に作成
予報は24日の 12時(UTC)から 25日の 18時(UTC)まで有効
北/北西の風 5kt
視程: 10km
晴天
24日の 1800時(UTC)から
南西の風 10kt
視程: 10km
晴天
25日の 0400時(UTC)から
南西の風 5kt
視程: 9.7km
晴天
煙霧
25日の 1800時(UTC)から
南西の風 10kt
視程: 10km
晴天

TAF: MMAA 241034Z 2412/2518 33005KT P6SM SKC TX30/2418Z TN23/2412Z FM241800 23010KT P6SM SKC FM250400 23005KT 6SM HZ SKC FM251800 23010KT P6SM SKC

4,000以上の空港の気象観測と天気予報(METAR報とTAF報)

利用可能な観測所は地図上に黄色い丸と赤い丸で示す。

丸の上にカーソルを重ねると観測所名を参照できる。

次にクリックすると気象観測と天気予報を参照できる。

マップの切り替え:黒色「×」印の緑ボタンをクリックして拡大、「-」印の緑ボタンをクリックして縮小、緑色の三角印をクリックして隣りの地図に切り替え


METAR-TAF: